Time;durP1;ratioP1;P1;durP2;ratioP2;P2;SDS_P1;SDS_P2;PMS_P1;PMS_P2;Temp;Humidity;BMP_temperature;BMP_pressure;BME280_temperature;BME280_humidity;BME280_pressure;Samples;Min_cycle;Max_cycle;Signal;HPM_P1;HPM_P2
2022/01/11 00:01:42;;;;;;;405.08;304.25;;;;;;;24.85;41.95;102353.91;5104410;28;20027;-42
2022/01/11 00:04:13;;;;;;;400.23;306.10;;;;;;;24.81;42.02;102356.41;5106820;27;20062;-43
2022/01/11 00:06:46;;;;;;;400.48;303.90;;;;;;;24.83;41.80;102354.69;5124881;27;20118;-42
2022/01/11 00:09:31;;;;;;;408.67;310.05;;;;;;;24.80;41.75;102354.63;5124488;27;20075;-53
2022/01/11 00:11:59;;;;;;;404.67;304.08;;;;;;;24.87;41.65;102357.47;5125078;27;20034;-44
2022/01/11 00:14:27;;;;;;;414.75;308.10;;;;;;;24.82;41.88;102355.56;5124729;27;20030;-50
2022/01/11 00:16:55;;;;;;;399.38;306.10;;;;;;;24.71;41.81;102334.22;5124913;27;20023;-46
2022/01/11 00:19:24;;;;;;;421.02;313.38;;;;;;;24.80;42.16;102354.63;5124807;27;20035;-42
2022/01/11 00:21:53;;;;;;;410.92;310.70;;;;;;;24.81;41.86;102366.91;5124362;27;20098;-42
2022/01/11 00:24:31;;;;;;;419.63;315.55;;;;;;;24.80;41.70;102366.00;5106661;27;20571;-42
2022/01/11 00:27:02;;;;;;;422.48;318.77;;;;;;;24.78;41.96;102359.78;5124485;27;20035;-43
2022/01/11 00:29:32;;;;;;;419.10;317.50;;;;;;;24.77;42.05;102368.50;5123815;27;20156;-42
2022/01/11 00:32:07;;;;;;;420.65;320.08;;;;;;;24.76;42.39;102371.09;5124646;27;20110;-42
2022/01/11 00:34:55;;;;;;;418.85;315.63;;;;;;;24.79;42.14;102365.94;5107219;27;20042;-43
2022/01/11 00:37:51;;;;;;;413.48;314.73;;;;;;;24.76;42.31;102360.59;5124310;27;20043;-42
2022/01/11 00:40:20;;;;;;;411.98;313.83;;;;;;;24.73;42.18;102364.03;5124103;27;20031;-42
2022/01/11 00:42:49;;;;;;;406.70;314.70;;;;;;;24.73;42.16;102364.91;5124479;27;20033;-42
2022/01/11 00:45:17;;;;;;;421.80;322.30;;;;;;;24.75;42.20;102372.81;5124074;27;20027;-41
2022/01/11 00:47:46;;;;;;;416.40;319.77;;;;;;;24.78;42.03;102369.41;5123842;27;20383;-42
2022/01/11 00:50:14;;;;;;;421.38;316.45;;;;;;;24.78;41.88;102365.03;5104880;27;20035;-42
2022/01/11 00:52:43;;;;;;;420.38;323.75;;;;;;;24.77;42.16;102365.00;5124405;27;20076;-42
2022/01/11 00:55:12;;;;;;;428.10;326.75;;;;;;;24.78;42.41;102369.41;5124172;28;20139;-42
2022/01/11 00:57:40;;;;;;;419.45;322.73;;;;;;;24.77;42.09;102375.50;5105913;28;20031;-43
2022/01/11 01:00:11;;;;;;;426.40;325.77;;;;;;;24.76;42.35;102377.22;5123418;28;20472;-42
2022/01/11 01:02:40;;;;;;;422.75;315.80;;;;;;;24.72;42.53;102378.00;5124399;28;20353;-43
2022/01/11 01:05:11;;;;;;;423.83;327.35;;;;;;;24.55;42.21;102351.16;5123167;28;20043;-42
2022/01/11 01:07:39;;;;;;;429.95;322.77;;;;;;;24.71;42.37;102376.22;5123747;28;20043;-43
2022/01/11 01:10:18;;;;;;;430.27;325.38;;;;;;;24.72;42.25;102385.88;5124132;28;20023;-42
2022/01/11 01:12:46;;;;;;;407.77;319.52;;;;;;;24.74;42.49;102378.91;5124126;28;20252;-43
2022/01/11 01:15:16;;;;;;;425.38;324.10;;;;;;;24.71;42.13;102377.09;5124048;28;20031;-43
2022/01/11 01:17:44;;;;;;;410.60;315.33;;;;;;;24.70;42.48;102383.16;5123967;28;20059;-42
2022/01/11 01:20:12;;;;;;;430.27;326.38;;;;;;;24.72;42.35;102381.50;5123772;28;20059;-42
2022/01/11 01:22:41;;;;;;;423.00;329.15;;;;;;;24.73;42.31;102378.03;5124056;28;20114;-42
2022/01/11 01:25:11;;;;;;;427.95;329.92;;;;;;;24.71;42.09;102382.34;5123962;28;20023;-45
2022/01/11 01:27:39;;;;;;;429.95;327.35;;;;;;;24.67;42.24;102377.78;5123993;28;20028;-42
2022/01/11 01:30:08;;;;;;;434.73;331.13;;;;;;;24.69;42.57;102378.72;5123969;28;20027;-42
2022/01/11 01:32:36;;;;;;;425.42;328.05;;;;;;;24.74;42.27;102373.66;5123334;28;20034;-42
2022/01/11 01:35:05;;;;;;;430.30;330.75;;;;;;;24.72;42.51;102375.38;5106045;28;20031;-42
2022/01/11 01:37:34;;;;;;;418.30;322.65;;;;;;;24.68;42.52;102381.31;5124037;28;20104;-42
2022/01/11 01:40:03;;;;;;;434.17;332.25;;;;;;;24.68;42.26;102376.94;5123834;28;20138;-49
2022/01/11 01:42:32;;;;;;;441.20;337.40;;;;;;;24.69;42.80;102386.59;5105516;28;20651;-44
2022/01/11 01:45:02;;;;;;;429.33;331.55;;;;;;;24.67;42.52;102383.03;5128216;27;20733;-43
2022/01/11 01:47:32;;;;;;;442.70;334.15;;;;;;;24.69;42.72;102386.59;5127713;27;20043;-42
2022/01/11 01:50:01;;;;;;;429.92;331.00;;;;;;;24.68;42.40;102390.06;5127254;27;20476;-43
2022/01/11 01:52:29;;;;;;;434.30;332.83;;;;;;;24.70;42.48;102385.78;5127304;27;20053;-42
2022/01/11 01:54:59;;;;;;;434.02;333.77;;;;;;;24.67;42.87;102384.78;5127389;27;20103;-43
2022/01/11 01:57:29;;;;;;;434.85;332.67;;;;;;;24.68;42.40;102383.94;5109071;27;20034;-43
2022/01/11 01:59:57;;;;;;;428.85;338.88;;;;;;;24.73;42.18;102387.66;5127056;27;20035;-42
2022/01/11 02:02:27;;;;;;;432.15;332.00;;;;;;;24.70;42.54;102384.91;5127464;27;20033;-43
2022/01/11 02:04:55;;;;;;;427.42;333.25;;;;;;;24.69;42.56;102389.22;5127051;27;20625;-44
2022/01/11 02:07:26;;;;;;;430.13;330.30;;;;;;;24.70;42.40;102393.66;5127270;27;20114;-42
2022/01/11 02:09:55;;;;;;;431.50;335.20;;;;;;;24.70;42.50;102393.66;5127177;27;20035;-41
2022/01/11 02:12:25;;;;;;;425.75;329.70;;;;;;;24.64;42.52;102398.69;5109230;27;20047;-44
2022/01/11 02:14:53;;;;;;;430.48;331.83;;;;;;;24.66;42.50;102404.00;5108810;27;20031;-44
2022/01/11 02:17:21;;;;;;;428.08;331.67;;;;;;;24.66;42.77;102402.25;5127232;27;20076;-43
2022/01/11 02:19:49;;;;;;;437.90;337.35;;;;;;;24.62;42.47;102405.63;5126706;27;20417;-42
2022/01/11 02:22:18;;;;;;;437.15;339.20;;;;;;;24.64;42.57;102406.56;5126874;27;20707;-42
2022/01/11 02:24:47;;;;;;;428.38;330.30;;;;;;;24.61;42.37;102411.72;5127226;27;20031;-43
2022/01/11 02:27:15;;;;;;;440.35;336.52;;;;;;;24.64;42.73;102408.28;5108489;27;20023;-43
2022/01/11 02:29:44;;;;;;;432.23;337.73;;;;;;;24.63;42.68;102410.03;5126822;27;20150;-42
2022/01/11 02:32:13;;;;;;;448.23;339.73;;;;;;;24.64;42.77;102411.81;5108363;27;20094;-42
2022/01/11 02:34:42;;;;;;;440.08;336.85;;;;;;;24.65;42.85;102415.31;5126589;27;20027;-42
2022/01/11 02:37:11;;;;;;;429.65;332.38;;;;;;;24.64;42.33;102418.78;5126338;27;20418;-43
2022/01/11 02:39:39;;;;;;;433.17;334.20;;;;;;;24.61;42.74;102419.59;5126180;27;20460;-45
2022/01/11 02:42:08;;;;;;;436.27;342.50;;;;;;;24.62;42.91;102420.47;5126785;27;20067;-43
2022/01/11 02:44:37;;;;;;;434.02;337.58;;;;;;;24.64;42.44;102418.78;5126788;27;20023;-42
2022/01/11 02:47:05;;;;;;;442.02;342.15;;;;;;;24.63;42.75;102420.53;5126374;27;20035;-42
2022/01/11 02:49:34;;;;;;;438.15;338.83;;;;;;;24.62;42.49;102425.72;5126356;27;20087;-42
2022/01/11 02:52:03;;;;;;;434.33;337.20;;;;;;;24.62;42.52;102424.00;5126281;27;20087;-42
2022/01/11 02:54:32;;;;;;;447.60;344.27;;;;;;;24.56;42.78;102423.78;5124396;27;20162;-42
2022/01/11 02:57:00;;;;;;;436.02;341.73;;;;;;;24.60;42.97;102428.28;5126388;27;20426;-43
2022/01/11 02:59:29;;;;;;;445.00;342.27;;;;;;;24.59;42.58;102421.25;5125929;27;20026;-42
2022/01/11 03:01:57;;;;;;;451.73;345.35;;;;;;;24.57;42.96;102425.56;5126358;27;20031;-43
2022/01/11 03:04:28;;;;;;;448.02;347.23;;;;;;;24.60;43.07;102423.03;5125997;27;20491;-42
2022/01/11 03:06:57;;;;;;;433.35;339.38;;;;;;;24.60;42.84;102425.66;5126365;27;20034;-42
2022/01/11 03:09:29;;;;;;;436.98;343.25;;;;;;;24.60;42.69;102420.44;5126030;27;20484;-43
2022/01/11 03:11:58;;;;;;;445.20;342.45;;;;;;;24.62;42.92;102430.94;5125976;27;20063;-42
2022/01/11 03:14:26;;;;;;;451.90;345.55;;;;;;;24.61;42.59;102424.84;5125624;27;20397;-42
2022/01/11 03:16:54;;;;;;;447.00;351.17;;;;;;;24.56;43.08;102421.16;5124999;27;20435;-42
2022/01/11 03:19:23;;;;;;;447.38;344.23;;;;;;;24.55;42.68;102422.91;5124967;27;20092;-44
2022/01/11 03:21:52;;;;;;;432.65;339.10;;;;;;;24.54;43.13;102426.38;5124919;27;20590;-44
2022/01/11 03:24:19;;;;;;;447.10;340.60;;;;;;;24.58;42.82;102427.34;5125293;27;20056;-44
2022/01/11 03:26:48;;;;;;;444.65;343.98;;;;;;;24.54;42.80;102425.44;5125711;27;20533;-43
2022/01/11 03:29:17;;;;;;;446.75;343.65;;;;;;;24.57;43.09;102429.06;5125744;27;20486;-42
2022/01/11 03:31:45;;;;;;;437.27;339.83;;;;;;;24.55;43.24;102424.63;5125559;27;20023;-42
2022/01/11 03:34:19;;;;;;;454.38;348.38;;;;;;;24.49;42.92;102422.69;5125766;27;20034;-41
2022/01/11 03:36:47;;;;;;;445.10;351.17;;;;;;;24.56;43.05;102423.78;5125513;27;20031;-43
2022/01/11 03:39:16;;;;;;;457.05;351.02;;;;;;;24.55;42.83;102425.53;5125112;27;20433;-45
2022/01/11 03:41:45;;;;;;;441.25;347.48;;;;;;;24.53;43.21;102431.53;5125663;27;20035;-43
2022/01/11 03:44:13;;;;;;;432.15;337.70;;;;;;;24.55;42.67;102438.63;5125357;27;20545;-42
2022/01/11 03:46:42;;;;;;;427.27;339.83;;;;;;;24.52;43.00;102435.00;5125070;27;20031;-42
2022/01/11 03:49:11;;;;;;;450.67;352.50;;;;;;;24.52;43.00;102432.38;5089553;27;20059;-44
2022/01/11 03:51:39;;;;;;;442.63;341.27;;;;;;;24.57;43.07;102441.31;5125039;27;20050;-42
2022/01/11 03:54:15;;;;;;;444.30;349.25;;;;;;;24.53;43.22;102442.94;5124780;27;20034;-42
2022/01/11 03:56:43;;;;;;;453.55;351.35;;;;;;;24.55;43.13;102448.22;5124816;27;20619;-42
2022/01/11 03:59:12;;;;;;;458.98;354.60;;;;;;;24.52;42.83;102442.88;5124933;27;20027;-42
2022/01/11 04:01:40;;;;;;;442.67;344.75;;;;;;;24.58;43.29;102443.97;5124752;27;20034;-43
2022/01/11 04:04:10;;;;;;;447.90;348.40;;;;;;;24.58;42.75;102448.34;5124876;27;20034;-42
2022/01/11 04:06:39;;;;;;;455.83;348.77;;;;;;;24.52;42.87;102433.28;5124675;27;20058;-42
2022/01/11 04:09:08;;;;;;;444.17;345.75;;;;;;;24.39;43.32;102412.72;5125156;27;20023;-42
2022/01/11 04:11:36;;;;;;;439.45;346.30;;;;;;;24.53;43.14;102436.78;5124793;27;20540;-42
2022/01/11 04:14:05;;;;;;;452.50;346.83;;;;;;;24.52;42.82;102440.25;5124651;27;20031;-42
2022/01/11 04:16:33;;;;;;;446.80;349.80;;;;;;;24.49;42.90;102443.66;5124549;27;20055;-42
2022/01/11 04:19:02;;;;;;;448.25;351.17;;;;;;;24.50;43.05;102447.16;5124340;27;20035;-42
2022/01/11 04:21:31;;;;;;;439.38;350.13;;;;;;;24.51;43.33;102452.47;5124699;27;20070;-42
2022/01/11 04:24:00;;;;;;;450.33;355.90;;;;;;;24.53;42.88;102460.41;5124938;27;20027;-42
2022/01/11 04:26:28;;;;;;;449.05;348.95;;;;;;;24.53;43.16;102455.16;5124308;27;20463;-42
2022/01/11 04:28:57;;;;;;;442.73;351.73;;;;;;;24.47;43.14;102449.72;5124734;27;20045;-42
2022/01/11 04:31:25;;;;;;;435.38;340.88;;;;;;;24.53;42.77;102457.78;5124416;27;20026;-42
2022/01/11 04:33:54;;;;;;;456.63;354.75;;;;;;;24.47;43.41;102465.44;5124171;27;20023;-41
2022/01/11 04:36:23;;;;;;;458.20;355.67;;;;;;;24.45;43.33;102461.88;5124277;27;20101;-41
2022/01/11 04:38:52;;;;;;;450.55;349.55;;;;;;;24.47;43.41;102461.09;5123503;27;20172;-42
2022/01/11 04:41:21;;;;;;;445.10;349.55;;;;;;;24.48;43.34;102473.34;5124385;27;20033;-42
2022/01/11 04:43:49;;;;;;;457.17;357.17;;;;;;;24.46;43.22;102468.91;5123986;27;20077;-42
2022/01/11 04:46:18;;;;;;;458.48;354.02;;;;;;;24.51;43.39;102464.69;5124317;27;20027;-41
2022/01/11 04:48:47;;;;;;;440.13;347.75;;;;;;;24.52;43.16;102466.47;5124748;27;20172;-41
2022/01/11 04:51:16;;;;;;;438.77;346.40;;;;;;;24.46;43.50;102472.41;5124791;27;20030;-41
2022/01/11 04:53:45;;;;;;;438.65;350.88;;;;;;;24.49;43.05;102469.03;5105677;27;20503;-42
2022/01/11 04:56:14;;;;;;;453.77;358.85;;;;;;;24.48;43.34;102475.97;5124028;27;20436;-47
2022/01/11 04:58:42;;;;;;;458.83;353.90;;;;;;;24.50;42.83;102470.78;5105861;28;20709;-42
2022/01/11 05:01:10;;;;;;;453.48;351.38;;;;;;;24.47;43.48;102478.56;5088768;28;20114;-42
2022/01/11 05:03:39;;;;;;;452.77;350.10;;;;;;;24.49;43.45;102474.28;5124237;28;20030;-42
2022/01/11 05:06:08;;;;;;;451.98;350.25;;;;;;;24.48;42.93;102477.72;5124020;28;20055;-42
2022/01/11 05:08:36;;;;;;;451.08;347.83;;;;;;;24.40;43.54;102477.47;5105820;28;20420;-44
2022/01/11 05:11:05;;;;;;;445.42;351.98;;;;;;;24.42;43.19;102489.78;5123963;28;20498;-44
2022/01/11 05:13:34;;;;;;;449.33;358.00;;;;;;;24.44;43.38;102487.19;5123707;28;20062;-41
2022/01/11 05:16:03;;;;;;;456.80;355.30;;;;;;;24.45;43.58;102490.72;5124008;28;20632;-42
2022/01/11 05:18:32;;;;;;;459.45;358.08;;;;;;;24.43;43.31;102495.91;5125680;27;20038;-42
2022/01/11 05:21:00;;;;;;;448.50;352.38;;;;;;;24.45;43.24;102489.00;5128448;27;20023;-43
2022/01/11 05:23:29;;;;;;;456.58;356.13;;;;;;;24.45;42.99;102491.59;5128147;27;20034;-43
2022/01/11 05:25:58;;;;;;;459.63;352.65;;;;;;;24.48;43.42;102498.72;5128536;27;20031;-41
2022/01/11 05:28:27;;;;;;;455.38;353.85;;;;;;;24.40;43.37;102488.84;5127880;27;20428;-42
2022/01/11 05:30:55;;;;;;;461.52;361.48;;;;;;;24.47;43.33;102500.44;5127748;27;20023;-42
2022/01/11 05:33:24;;;;;;;452.50;358.92;;;;;;;24.42;43.29;102492.41;5127216;27;20031;-42
2022/01/11 05:35:52;;;;;;;457.52;358.30;;;;;;;24.48;43.23;102502.22;5109045;27;20037;-42
2022/01/11 05:38:21;;;;;;;453.10;355.00;;;;;;;24.47;43.12;102499.56;5127834;27;20434;-42
2022/01/11 05:40:50;;;;;;;456.17;358.70;;;;;;;24.45;43.10;102517.84;5127889;27;20142;-45
2022/01/11 05:43:18;;;;;;;458.25;354.05;;;;;;;24.43;43.47;102514.28;5127299;27;20035;-42
2022/01/11 05:45:48;;;;;;;467.23;357.38;;;;;;;24.44;43.67;102516.06;5127341;27;20080;-42
2022/01/11 05:48:17;;;;;;;455.40;357.35;;;;;;;24.48;43.39;102523.19;5126859;27;20031;-42
2022/01/11 05:50:45;;;;;;;456.77;358.48;;;;;;;24.44;43.15;102523.94;5126596;27;20400;-44
2022/01/11 05:53:14;;;;;;;466.20;357.90;;;;;;;24.46;43.24;102524.00;5127259;27;20106;-42
2022/01/11 05:55:42;;;;;;;459.73;362.25;;;;;;;24.44;43.56;102526.53;5127638;27;20042;-42
2022/01/11 05:58:11;;;;;;;445.48;356.48;;;;;;;24.43;43.25;102528.28;5127423;27;20388;-43
2022/01/11 06:00:39;;;;;;;466.13;361.08;;;;;;;24.46;43.41;102526.63;5127759;27;20023;-42
2022/01/11 06:03:08;;;;;;;463.15;366.27;;;;;;;24.42;43.45;102523.88;5126759;27;20034;-44
2022/01/11 06:05:39;;;;;;;461.42;359.85;;;;;;;24.42;43.34;102529.13;5126763;27;20076;-43
2022/01/11 06:08:08;;;;;;;462.33;359.92;;;;;;;24.45;43.56;102533.56;5127330;27;20061;-43
2022/01/11 06:10:37;;;;;;;461.90;362.30;;;;;;;24.40;43.22;102528.19;5127053;27;20059;-42
2022/01/11 06:13:06;;;;;;;458.40;360.35;;;;;;;24.39;43.43;102536.88;5127079;27;20031;-42
2022/01/11 06:15:34;;;;;;;456.27;355.08;;;;;;;24.45;43.31;102532.69;5127124;27;20031;-43
2022/01/11 06:18:03;;;;;;;453.23;357.05;;;;;;;24.43;43.36;102535.25;5108801;27;20063;-44
2022/01/11 06:20:30;;;;;;;459.95;355.55;;;;;;;24.43;43.51;102540.50;5126647;27;20031;-42
2022/01/11 06:23:00;;;;;;;458.20;356.60;;;;;;;24.33;43.23;102523.53;5108806;27;20031;-42
2022/01/11 06:25:29;;;;;;;455.08;356.73;;;;;;;24.39;43.39;102541.25;5108508;27;20080;-44
2022/01/11 06:27:57;;;;;;;458.63;358.60;;;;;;;24.33;43.86;102539.28;5126155;27;20135;-44
2022/01/11 06:30:26;;;;;;;461.88;360.85;;;;;;;24.38;43.76;102545.59;5126458;27;20130;-42
2022/01/11 06:32:56;;;;;;;450.13;354.85;;;;;;;24.37;43.82;102554.28;5126894;27;20096;-42
2022/01/11 06:35:25;;;;;;;462.27;363.60;;;;;;;24.40;43.60;102548.28;5127017;27;20027;-42
2022/01/11 06:37:54;;;;;;;456.67;358.98;;;;;;;24.38;43.50;102556.06;5126653;27;20433;-43
2022/01/11 06:40:23;;;;;;;458.75;361.73;;;;;;;24.36;43.37;102563.00;5126259;27;20038;-42
2022/01/11 06:42:53;;;;;;;458.05;363.92;;;;;;;24.38;43.34;102566.56;5091079;27;20031;-42
2022/01/11 06:45:22;;;;;;;459.58;364.30;;;;;;;24.37;43.41;102556.91;5126765;27;20463;-43
2022/01/11 06:47:51;;;;;;;461.50;360.05;;;;;;;24.38;43.55;102560.44;5126719;27;20042;-42
2022/01/11 06:50:21;;;;;;;453.13;360.80;;;;;;;24.36;43.50;102568.25;5126376;27;20030;-42
2022/01/11 06:52:50;;;;;;;463.13;365.02;;;;;;;24.41;43.61;102569.31;5108288;27;20026;-43
2022/01/11 06:55:19;;;;;;;461.27;367.50;;;;;;;24.39;43.73;102575.34;5126600;27;20042;-42
2022/01/11 06:57:48;;;;;;;470.73;367.42;;;;;;;24.39;43.74;102575.34;5125964;27;20310;-42
2022/01/11 07:00:17;;;;;;;462.48;361.75;;;;;;;24.38;43.44;102573.56;5126204;27;20519;-43
2022/01/11 07:02:49;;;;;;;477.38;368.90;;;;;;;24.33;43.98;102583.84;5107989;27;20027;-42
2022/01/11 07:05:18;;;;;;;464.13;358.83;;;;;;;24.36;43.69;102583.09;5107815;27;20832;-42
2022/01/11 07:07:47;;;;;;;468.70;366.85;;;;;;;24.36;43.83;102593.59;5126066;27;20464;-42
2022/01/11 07:10:15;;;;;;;466.45;362.95;;;;;;;24.34;43.49;102572.53;5125824;27;20039;-43
2022/01/11 07:12:43;;;;;;;477.70;372.65;;;;;;;24.36;43.70;102585.72;5125962;27;20019;-42
2022/01/11 07:15:12;;;;;;;472.10;369.60;;;;;;;24.35;43.75;102586.56;5125734;27;20226;-43
2022/01/11 07:17:41;;;;;;;463.42;367.25;;;;;;;24.35;43.85;102587.44;5126035;27;20381;-43
2022/01/11 07:20:11;;;;;;;450.08;364.00;;;;;;;24.39;43.64;102591.09;5125897;27;20080;-43
2022/01/11 07:22:39;;;;;;;459.17;367.05;;;;;;;24.42;43.78;102591.16;5125890;27;20079;-43
2022/01/11 07:25:07;;;;;;;469.25;364.33;;;;;;;24.41;43.89;102598.16;5090254;27;20052;-44
2022/01/11 07:27:35;;;;;;;470.13;370.00;;;;;;;24.42;43.91;102596.41;5107301;27;20031;-42
2022/01/11 07:30:06;;;;;;;462.83;367.20;;;;;;;24.40;43.52;102604.25;5090157;27;20084;-44
2022/01/11 07:32:35;;;;;;;477.75;375.75;;;;;;;24.41;43.86;102606.03;5125317;27;20054;-42
2022/01/11 07:35:05;;;;;;;462.73;361.27;;;;;;;24.45;43.63;102614.91;5125721;27;20065;-42
2022/01/11 07:37:33;;;;;;;460.40;361.15;;;;;;;24.43;43.58;102617.47;5126105;27;20134;-43
2022/01/11 07:40:02;;;;;;;463.50;366.42;;;;;;;24.39;43.67;102619.94;5124861;27;20420;-43
2022/01/11 07:42:30;;;;;;;466.83;369.25;;;;;;;24.40;43.95;102621.72;5124820;27;20088;-43
2022/01/11 07:44:59;;;;;;;473.23;372.73;;;;;;;24.38;43.65;102632.16;5090354;27;20498;-43
2022/01/11 07:47:27;;;;;;;472.63;368.05;;;;;;;24.39;43.74;102631.31;5125007;27;20062;-42
2022/01/11 07:49:56;;;;;;;470.48;361.98;;;;;;;24.38;43.58;102639.13;5107124;27;20023;-42
2022/01/11 07:52:24;;;;;;;457.10;361.30;;;;;;;24.40;43.68;102647.97;5106900;27;20209;-42
2022/01/11 07:54:53;;;;;;;463.30;364.67;;;;;;;24.42;43.75;102636.69;5125605;27;20023;-45
2022/01/11 07:57:22;;;;;;;457.65;359.88;;;;;;;24.49;43.75;102643.03;5125008;27;20210;-42
2022/01/11 07:59:51;;;;;;;463.48;359.60;;;;;;;24.40;43.94;102648.84;5125258;27;20070;-42
2022/01/11 08:02:20;;;;;;;470.92;364.40;;;;;;;24.41;43.85;102650.63;5125368;27;20076;-42
2022/01/11 08:04:48;;;;;;;464.40;362.58;;;;;;;24.42;43.78;102654.13;5106151;27;20067;-42
2022/01/11 08:07:17;;;;;;;458.17;356.75;;;;;;;24.42;44.00;102654.13;5106439;27;20413;-42
2022/01/11 08:09:46;;;;;;;467.25;358.27;;;;;;;24.43;43.89;102659.44;5124791;27;20293;-43
2022/01/11 08:12:14;;;;;;;459.45;354.95;;;;;;;24.42;43.84;102662.91;5125116;27;20054;-42
2022/01/11 08:14:44;;;;;;;468.33;358.23;;;;;;;24.46;43.76;102668.28;5124003;27;20098;-43
2022/01/11 08:17:12;;;;;;;470.23;358.02;;;;;;;24.46;43.93;102674.41;5124236;27;20488;-42
2022/01/11 08:19:42;;;;;;;461.23;358.52;;;;;;;24.44;43.92;102676.06;5088664;27;20384;-42
2022/01/11 08:22:10;;;;;;;457.73;358.30;;;;;;;24.49;43.64;102677.16;5124769;27;20030;-45
2022/01/11 08:24:39;;;;;;;461.67;358.65;;;;;;;24.46;43.86;102684.03;5124152;27;20027;-42
2022/01/11 08:27:08;;;;;;;464.48;359.90;;;;;;;24.48;43.93;102682.34;5105957;27;20466;-44
2022/01/11 08:29:39;;;;;;;461.10;355.13;;;;;;;24.47;44.13;102684.06;5124454;27;20422;-42
2022/01/11 08:32:08;;;;;;;470.25;357.85;;;;;;;24.50;44.00;102678.03;5124591;27;20404;-46
2022/01/11 08:34:37;;;;;;;457.27;353.63;;;;;;;24.53;43.86;102686.03;5124380;27;20103;-43
2022/01/11 08:37:06;;;;;;;462.92;360.08;;;;;;;24.54;43.99;102683.47;5124237;27;20046;-47
2022/01/11 08:39:35;;;;;;;453.67;346.77;;;;;;;24.54;44.17;102690.44;5123879;27;20031;-42
2022/01/11 08:42:04;;;;;;;457.65;354.40;;;;;;;24.53;43.92;102694.81;5089198;27;20055;-43
2022/01/11 08:44:34;;;;;;;462.58;358.60;;;;;;;24.53;44.12;102692.19;5124429;27;20034;-42
2022/01/11 08:47:03;;;;;;;457.13;349.75;;;;;;;24.57;44.15;102695.81;5124385;27;20043;-42
2022/01/11 08:49:32;;;;;;;459.02;351.13;;;;;;;24.56;44.31;102692.31;5124370;27;20107;-42
2022/01/11 08:52:00;;;;;;;453.20;348.55;;;;;;;24.60;44.36;102708.13;5123742;27;20038;-42
2022/01/11 08:54:29;;;;;;;458.33;350.08;;;;;;;24.57;43.99;102703.69;5124308;27;20019;-44
2022/01/11 08:56:58;;;;;;;459.60;354.38;;;;;;;24.60;44.36;102705.50;5123592;27;20035;-43
2022/01/11 08:59:27;;;;;;;455.90;349.73;;;;;;;24.57;44.26;102706.31;5123999;28;20034;-42
2022/01/11 09:01:58;;;;;;;461.75;354.90;;;;;;;24.63;44.33;102708.25;5124205;28;20023;-43
2022/01/11 09:04:27;;;;;;;468.98;354.52;;;;;;;24.61;44.17;102710.84;5123921;28;20082;-43
2022/01/11 09:06:57;;;;;;;466.50;353.55;;;;;;;24.66;44.27;102713.63;5124262;28;20035;-43
2022/01/11 09:09:28;;;;;;;458.50;350.45;;;;;;;24.64;43.92;102718.81;5124183;28;20029;-49
2022/01/11 09:11:57;;;;;;;465.80;359.27;;;;;;;24.64;44.04;102721.44;5124181;28;20027;-42
2022/01/11 09:14:26;;;;;;;452.38;346.30;;;;;;;24.67;44.26;102729.41;5124029;28;20035;-42
2022/01/11 09:16:55;;;;;;;458.02;349.27;;;;;;;24.64;44.22;102728.41;5124137;28;20437;-45
2022/01/11 09:19:24;;;;;;;461.75;350.55;;;;;;;24.62;44.38;102723.13;5123908;28;20460;-43
2022/01/11 09:21:52;;;;;;;468.58;358.10;;;;;;;24.60;44.22;102735.28;5124328;28;20110;-45
2022/01/11 09:24:20;;;;;;;474.13;358.60;;;;;;;24.61;44.39;102734.44;5124017;28;20564;-43
2022/01/11 09:26:49;;;;;;;448.30;345.88;;;;;;;24.60;44.08;102729.13;5123940;28;20035;-44
2022/01/11 09:29:18;;;;;;;453.42;352.50;;;;;;;24.68;44.03;102740.81;5123589;28;20051;-42
2022/01/11 09:31:46;;;;;;;466.35;354.10;;;;;;;24.67;44.31;102747.78;5105131;28;20430;-44
2022/01/11 09:34:15;;;;;;;468.27;358.95;;;;;;;24.69;44.15;102754.00;5124086;28;20114;-42
2022/01/11 09:36:44;;;;;;;467.42;353.30;;;;;;;24.65;44.23;102752.13;5123827;28;20073;-42
2022/01/11 09:39:12;;;;;;;456.70;349.98;;;;;;;24.69;43.98;102751.38;5123870;28;20027;-42
2022/01/11 09:41:41;;;;;;;459.02;351.92;;;;;;;24.66;44.20;102753.88;5123970;28;20074;-43
2022/01/11 09:44:11;;;;;;;462.58;354.15;;;;;;;24.66;44.38;102750.38;5123454;28;20529;-42
2022/01/11 09:46:40;;;;;;;464.90;354.13;;;;;;;24.73;43.88;102753.31;5123681;28;20035;-42
2022/01/11 09:49:08;;;;;;;460.15;352.95;;;;;;;24.71;44.20;102765.47;5105719;28;20027;-43
2022/01/11 09:51:37;;;;;;;460.38;350.10;;;;;;;24.64;43.85;102758.19;5123868;28;20030;-44
2022/01/11 09:54:08;;;;;;;461.70;350.83;;;;;;;24.72;43.77;102769.91;5105790;28;20019;-42
2022/01/11 09:56:40;;;;;;;466.92;348.65;;;;;;;24.71;43.82;102775.97;5123406;28;20038;-42
2022/01/11 09:59:09;;;;;;;466.20;349.33;;;;;;;24.70;44.25;102773.31;5123312;28;20023;-43
2022/01/11 10:01:37;;;;;;;462.13;351.38;;;;;;;24.74;44.04;102777.81;5105133;28;20027;-45
2022/01/11 10:04:13;;;;;;;465.55;351.58;;;;;;;24.70;44.35;102781.19;5124359;27;20035;-43
2022/01/11 10:06:42;;;;;;;458.67;350.38;;;;;;;24.73;44.01;102784.81;5127186;27;20031;-43
2022/01/11 10:09:21;;;;;;;472.98;356.73;;;;;;;24.75;44.03;102789.22;5109179;27;20502;-42
2022/01/11 10:11:52;;;;;;;461.30;354.83;;;;;;;24.77;44.10;102791.06;5127146;27;20073;-43
2022/01/11 10:14:21;;;;;;;472.63;359.38;;;;;;;24.75;44.03;102803.22;5127608;27;20031;-42
2022/01/11 10:16:50;;;;;;;475.55;357.98;;;;;;;24.75;44.11;102797.97;5127052;27;20026;-42
2022/01/11 10:19:22;;;;;;;465.00;352.60;;;;;;;24.75;43.92;102804.97;5126917;27;20071;-42
2022/01/11 10:21:54;;;;;;;464.52;359.67;;;;;;;24.75;44.14;102800.59;5125598;27;20023;-42
2022/01/11 10:24:22;;;;;;;468.50;364.08;;;;;;;24.78;44.12;102812.97;5109571;27;20043;-42
2022/01/11 10:26:53;;;;;;;466.00;358.40;;;;;;;24.75;43.88;102816.34;5126990;27;20491;-43
2022/01/11 10:29:41;;;;;;;463.52;363.63;;;;;;;24.82;43.83;102817.50;5127004;27;20031;-44
2022/01/11 10:32:31;;;;;;;470.60;357.23;;;;;;;24.82;44.09;102825.38;5126647;27;20027;-45
2022/01/11 10:35:03;;;;;;;474.05;358.70;;;;;;;24.78;44.02;102826.09;5127282;27;20483;-42
2022/01/11 10:37:43;;;;;;;467.70;359.90;;;;;;;24.79;44.02;102830.50;5091576;27;20034;-41
2022/01/11 10:40:15;;;;;;;473.52;359.05;;;;;;;24.78;44.13;102834.84;5126666;27;20019;-42
2022/01/11 10:42:48;;;;;;;470.70;359.20;;;;;;;24.83;44.00;102832.41;5126296;27;20031;-46
2022/01/11 10:45:18;;;;;;;476.80;364.23;;;;;;;24.88;44.07;102833.47;5125762;27;20383;-42
2022/01/11 10:47:50;;;;;;;464.15;353.75;;;;;;;24.90;43.69;102838.81;5125737;27;20096;-42
2022/01/11 10:50:27;;;;;;;462.00;349.98;;;;;;;24.95;43.38;102843.41;5126121;27;20487;-45
2022/01/11 10:52:56;;;;;;;452.77;346.50;;;;;;;24.94;43.32;102833.72;5125848;27;20029;-43
2022/01/11 10:55:27;;;;;;;451.08;342.52;;;;;;;24.93;43.66;102842.44;5126368;27;20128;-43
2022/01/11 10:57:58;;;;;;;444.13;337.25;;;;;;;24.96;43.78;102839.94;5125932;27;20035;-42
2022/01/11 11:00:31;;;;;;;456.67;341.58;;;;;;;24.99;43.28;102853.16;5126058;27;20031;-43
2022/01/11 11:03:01;;;;;;;466.67;340.98;;;;;;;24.96;43.89;102855.69;5125993;27;20027;-43
2022/01/11 11:05:33;;;;;;;467.60;349.88;;;;;;;25.01;43.71;102848.88;5125926;27;20156;-42